sensor_id;sensor_type;location;lat;lon;timestamp;temperature;humidity
33793;DHT22;20105;48.764;9.178;2022-07-06T00:01:33;18.90;94.10
33793;DHT22;20105;48.764;9.178;2022-07-06T00:03:58;18.80;94.00
33793;DHT22;20105;48.764;9.178;2022-07-06T00:06:24;18.80;94.10
33793;DHT22;20105;48.764;9.178;2022-07-06T00:08:50;18.80;94.10
33793;DHT22;20105;48.764;9.178;2022-07-06T00:11:15;18.80;94.50
33793;DHT22;20105;48.764;9.178;2022-07-06T00:13:42;18.70;94.40
33793;DHT22;20105;48.764;9.178;2022-07-06T00:16:08;18.70;94.40
33793;DHT22;20105;48.764;9.178;2022-07-06T00:18:33;18.80;94.40
33793;DHT22;20105;48.764;9.178;2022-07-06T00:20:59;18.70;94.50
33793;DHT22;20105;48.764;9.178;2022-07-06T00:23:24;18.60;94.90
33793;DHT22;20105;48.764;9.178;2022-07-06T00:25:50;18.60;95.10
33793;DHT22;20105;48.764;9.178;2022-07-06T00:28:15;18.60;94.80
33793;DHT22;20105;48.764;9.178;2022-07-06T00:30:41;18.60;95.00
33793;DHT22;20105;48.764;9.178;2022-07-06T00:33:07;18.60;94.90
33793;DHT22;20105;48.764;9.178;2022-07-06T00:35:33;18.60;94.60
33793;DHT22;20105;48.764;9.178;2022-07-06T00:37:59;18.60;94.50
33793;DHT22;20105;48.764;9.178;2022-07-06T00:40:25;18.60;95.90
33793;DHT22;20105;48.764;9.178;2022-07-06T00:42:51;18.50;95.70
33793;DHT22;20105;48.764;9.178;2022-07-06T00:45:18;18.40;95.90
33793;DHT22;20105;48.764;9.178;2022-07-06T00:47:45;18.30;96.30
33793;DHT22;20105;48.764;9.178;2022-07-06T00:50:12;18.20;96.40
33793;DHT22;20105;48.764;9.178;2022-07-06T00:55:27;18.10;97.00
33793;DHT22;20105;48.764;9.178;2022-07-06T00:57:54;18.00;97.00
33793;DHT22;20105;48.764;9.178;2022-07-06T01:00:25;18.00;96.80
33793;DHT22;20105;48.764;9.178;2022-07-06T01:02:51;18.00;97.20
33793;DHT22;20105;48.764;9.178;2022-07-06T01:05:17;17.90;97.80
33793;DHT22;20105;48.764;9.178;2022-07-06T01:07:44;17.90;97.50
33793;DHT22;20105;48.764;9.178;2022-07-06T01:10:11;17.90;96.60
33793;DHT22;20105;48.764;9.178;2022-07-06T01:12:41;17.90;97.00
33793;DHT22;20105;48.764;9.178;2022-07-06T01:15:09;18.00;96.30
33793;DHT22;20105;48.764;9.178;2022-07-06T01:17:35;18.00;96.90
33793;DHT22;20105;48.764;9.178;2022-07-06T01:20:16;18.00;96.30
33793;DHT22;20105;48.764;9.178;2022-07-06T01:22:43;17.90;96.60
33793;DHT22;20105;48.764;9.178;2022-07-06T01:25:09;17.90;96.90
33793;DHT22;20105;48.764;9.178;2022-07-06T01:27:37;18.00;96.10
33793;DHT22;20105;48.764;9.178;2022-07-06T01:32:32;18.00;95.50
33793;DHT22;20105;48.764;9.178;2022-07-06T01:35:00;18.10;95.40
33793;DHT22;20105;48.764;9.178;2022-07-06T01:37:25;18.10;95.30
33793;DHT22;20105;48.764;9.178;2022-07-06T01:39:51;18.00;95.20
33793;DHT22;20105;48.764;9.178;2022-07-06T01:42:16;18.00;95.30
33793;DHT22;20105;48.764;9.178;2022-07-06T01:44:43;18.00;95.90
33793;DHT22;20105;48.764;9.178;2022-07-06T01:47:10;17.90;96.10
33793;DHT22;20105;48.764;9.178;2022-07-06T01:49:35;17.90;96.00
33793;DHT22;20105;48.764;9.178;2022-07-06T01:52:01;17.80;95.60
33793;DHT22;20105;48.764;9.178;2022-07-06T01:54:26;17.80;95.50
33793;DHT22;20105;48.764;9.178;2022-07-06T01:56:52;17.80;95.40
33793;DHT22;20105;48.764;9.178;2022-07-06T01:59:17;17.80;95.40
33793;DHT22;20105;48.764;9.178;2022-07-06T02:01:43;17.80;95.30
33793;DHT22;20105;48.764;9.178;2022-07-06T02:04:08;17.70;95.60
33793;DHT22;20105;48.764;9.178;2022-07-06T02:06:34;17.70;95.70
33793;DHT22;20105;48.764;9.178;2022-07-06T02:09:00;17.70;95.60
33793;DHT22;20105;48.764;9.178;2022-07-06T02:11:25;17.60;96.10
33793;DHT22;20105;48.764;9.178;2022-07-06T02:13:52;17.60;96.20
33793;DHT22;20105;48.764;9.178;2022-07-06T02:16:18;17.50;96.30
33793;DHT22;20105;48.764;9.178;2022-07-06T02:18:43;17.50;96.30
33793;DHT22;20105;48.764;9.178;2022-07-06T02:21:09;17.40;96.50
33793;DHT22;20105;48.764;9.178;2022-07-06T02:23:34;17.40;96.60
33793;DHT22;20105;48.764;9.178;2022-07-06T02:26:00;17.30;97.20
33793;DHT22;20105;48.764;9.178;2022-07-06T02:28:25;17.30;97.40
33793;DHT22;20105;48.764;9.178;2022-07-06T02:30:51;17.30;96.80
33793;DHT22;20105;48.764;9.178;2022-07-06T02:33:17;17.30;96.80
33793;DHT22;20105;48.764;9.178;2022-07-06T02:35:42;17.30;97.00
33793;DHT22;20105;48.764;9.178;2022-07-06T02:38:17;17.30;97.00
33793;DHT22;20105;48.764;9.178;2022-07-06T02:40:42;17.20;97.30
33793;DHT22;20105;48.764;9.178;2022-07-06T02:43:08;17.20;97.00
33793;DHT22;20105;48.764;9.178;2022-07-06T02:45:34;17.20;97.50
33793;DHT22;20105;48.764;9.178;2022-07-06T02:47:59;17.20;97.60
33793;DHT22;20105;48.764;9.178;2022-07-06T02:50:25;17.20;97.30
33793;DHT22;20105;48.764;9.178;2022-07-06T02:52:51;17.10;97.80
33793;DHT22;20105;48.764;9.178;2022-07-06T02:55:16;17.00;98.70
33793;DHT22;20105;48.764;9.178;2022-07-06T02:57:42;16.90;98.90
33793;DHT22;20105;48.764;9.178;2022-07-06T03:00:09;16.80;99.00
33793;DHT22;20105;48.764;9.178;2022-07-06T03:02:36;16.80;98.90
33793;DHT22;20105;48.764;9.178;2022-07-06T03:05:02;16.90;98.80
33793;DHT22;20105;48.764;9.178;2022-07-06T03:07:27;16.90;98.50
33793;DHT22;20105;48.764;9.178;2022-07-06T03:09:53;16.90;98.70
33793;DHT22;20105;48.764;9.178;2022-07-06T03:12:18;16.90;98.80
33793;DHT22;20105;48.764;9.178;2022-07-06T03:14:44;16.80;99.10
33793;DHT22;20105;48.764;9.178;2022-07-06T03:17:10;16.80;99.30
33793;DHT22;20105;48.764;9.178;2022-07-06T03:19:35;16.70;99.10
33793;DHT22;20105;48.764;9.178;2022-07-06T03:22:01;16.70;99.00
33793;DHT22;20105;48.764;9.178;2022-07-06T03:24:26;16.70;99.00
33793;DHT22;20105;48.764;9.178;2022-07-06T03:26:53;16.70;99.20
33793;DHT22;20105;48.764;9.178;2022-07-06T03:29:19;16.70;99.10
33793;DHT22;20105;48.764;9.178;2022-07-06T03:31:45;16.70;99.20
33793;DHT22;20105;48.764;9.178;2022-07-06T03:34:11;16.60;99.30
33793;DHT22;20105;48.764;9.178;2022-07-06T03:36:37;16.60;99.20
33793;DHT22;20105;48.764;9.178;2022-07-06T03:39:03;16.60;99.70
33793;DHT22;20105;48.764;9.178;2022-07-06T03:41:29;16.50;99.90
33793;DHT22;20105;48.764;9.178;2022-07-06T03:43:55;16.50;99.80
33793;DHT22;20105;48.764;9.178;2022-07-06T03:46:20;16.50;99.60
33793;DHT22;20105;48.764;9.178;2022-07-06T03:48:46;16.50;99.90
33793;DHT22;20105;48.764;9.178;2022-07-06T03:51:12;16.60;99.90
33793;DHT22;20105;48.764;9.178;2022-07-06T03:53:37;16.50;99.90
33793;DHT22;20105;48.764;9.178;2022-07-06T03:56:03;16.40;99.90
33793;DHT22;20105;48.764;9.178;2022-07-06T03:58:47;16.30;99.90
33793;DHT22;20105;48.764;9.178;2022-07-06T04:01:13;16.30;99.90
33793;DHT22;20105;48.764;9.178;2022-07-06T04:03:39;16.20;99.90
33793;DHT22;20105;48.764;9.178;2022-07-06T04:06:04;16.10;99.90
33793;DHT22;20105;48.764;9.178;2022-07-06T04:08:30;16.20;99.90
33793;DHT22;20105;48.764;9.178;2022-07-06T04:10:56;16.20;99.90
33793;DHT22;20105;48.764;9.178;2022-07-06T04:13:21;16.20;99.90
33793;DHT22;20105;48.764;9.178;2022-07-06T04:15:47;16.30;99.90
33793;DHT22;20105;48.764;9.178;2022-07-06T04:18:13;16.30;99.90
33793;DHT22;20105;48.764;9.178;2022-07-06T04:20:38;16.20;99.90
33793;DHT22;20105;48.764;9.178;2022-07-06T04:23:04;16.20;99.90
33793;DHT22;20105;48.764;9.178;2022-07-06T04:25:30;16.20;99.90
33793;DHT22;20105;48.764;9.178;2022-07-06T04:27:55;16.20;99.90
33793;DHT22;20105;48.764;9.178;2022-07-06T04:30:21;16.30;99.90
33793;DHT22;20105;48.764;9.178;2022-07-06T04:32:46;16.30;99.90
33793;DHT22;20105;48.764;9.178;2022-07-06T04:35:12;16.30;99.90
33793;DHT22;20105;48.764;9.178;2022-07-06T04:37:39;16.30;99.90
33793;DHT22;20105;48.764;9.178;2022-07-06T04:40:04;16.30;99.90
33793;DHT22;20105;48.764;9.178;2022-07-06T04:42:31;16.30;99.90
33793;DHT22;20105;48.764;9.178;2022-07-06T04:44:56;16.30;99.90
33793;DHT22;20105;48.764;9.178;2022-07-06T04:47:22;16.40;99.90
33793;DHT22;20105;48.764;9.178;2022-07-06T04:49:47;16.40;99.90
33793;DHT22;20105;48.764;9.178;2022-07-06T04:52:13;16.40;99.90
33793;DHT22;20105;48.764;9.178;2022-07-06T04:54:39;16.50;99.90
33793;DHT22;20105;48.764;9.178;2022-07-06T04:57:04;16.40;99.90
33793;DHT22;20105;48.764;9.178;2022-07-06T04:59:30;16.40;99.90
33793;DHT22;20105;48.764;9.178;2022-07-06T05:01:56;16.40;99.90
33793;DHT22;20105;48.764;9.178;2022-07-06T05:04:21;16.60;99.90
33793;DHT22;20105;48.764;9.178;2022-07-06T05:06:49;16.60;99.90
33793;DHT22;20105;48.764;9.178;2022-07-06T05:09:14;16.60;99.90
33793;DHT22;20105;48.764;9.178;2022-07-06T05:11:40;16.60;99.90
33793;DHT22;20105;48.764;9.178;2022-07-06T05:14:06;16.50;99.90
33793;DHT22;20105;48.764;9.178;2022-07-06T05:16:32;16.50;99.90
33793;DHT22;20105;48.764;9.178;2022-07-06T05:19:14;16.50;99.90
33793;DHT22;20105;48.764;9.178;2022-07-06T05:21:40;16.50;99.90
33793;DHT22;20105;48.764;9.178;2022-07-06T05:24:06;16.60;99.90
33793;DHT22;20105;48.764;9.178;2022-07-06T05:26:31;16.60;99.90
33793;DHT22;20105;48.764;9.178;2022-07-06T05:28:57;16.70;99.90
33793;DHT22;20105;48.764;9.178;2022-07-06T05:31:22;16.70;99.90
33793;DHT22;20105;48.764;9.178;2022-07-06T05:33:48;16.90;99.90
33793;DHT22;20105;48.764;9.178;2022-07-06T05:36:13;16.90;99.90
33793;DHT22;20105;48.764;9.178;2022-07-06T05:38:39;16.90;99.90
33793;DHT22;20105;48.764;9.178;2022-07-06T05:41:05;16.90;99.90
33793;DHT22;20105;48.764;9.178;2022-07-06T05:43:30;17.00;99.90
33793;DHT22;20105;48.764;9.178;2022-07-06T05:46:02;17.00;99.90
33793;DHT22;20105;48.764;9.178;2022-07-06T05:48:27;17.10;99.90
33793;DHT22;20105;48.764;9.178;2022-07-06T05:51:12;17.20;99.90
33793;DHT22;20105;48.764;9.178;2022-07-06T05:53:37;17.20;99.90
33793;DHT22;20105;48.764;9.178;2022-07-06T05:56:03;17.30;99.80
33793;DHT22;20105;48.764;9.178;2022-07-06T05:58:29;17.30;99.80
33793;DHT22;20105;48.764;9.178;2022-07-06T06:00:55;17.30;99.90
33793;DHT22;20105;48.764;9.178;2022-07-06T06:03:57;17.30;99.70
33793;DHT22;20105;48.764;9.178;2022-07-06T06:06:18;17.30;99.60
33793;DHT22;20105;48.764;9.178;2022-07-06T06:08:44;17.30;99.90
33793;DHT22;20105;48.764;9.178;2022-07-06T06:11:09;17.50;99.50
33793;DHT22;20105;48.764;9.178;2022-07-06T06:13:35;17.50;99.10
33793;DHT22;20105;48.764;9.178;2022-07-06T06:16:00;17.50;98.80
33793;DHT22;20105;48.764;9.178;2022-07-06T06:18:26;17.50;99.20
33793;DHT22;20105;48.764;9.178;2022-07-06T06:20:52;17.60;98.80
33793;DHT22;20105;48.764;9.178;2022-07-06T06:23:20;17.70;98.60
33793;DHT22;20105;48.764;9.178;2022-07-06T06:25:46;17.60;98.40
33793;DHT22;20105;48.764;9.178;2022-07-06T06:28:11;17.80;98.20
33793;DHT22;20105;48.764;9.178;2022-07-06T06:30:38;17.80;98.10
33793;DHT22;20105;48.764;9.178;2022-07-06T06:33:15;17.70;98.40
33793;DHT22;20105;48.764;9.178;2022-07-06T06:35:46;17.60;98.50
33793;DHT22;20105;48.764;9.178;2022-07-06T06:38:13;17.70;98.50
33793;DHT22;20105;48.764;9.178;2022-07-06T06:40:38;17.80;98.20
33793;DHT22;20105;48.764;9.178;2022-07-06T06:43:04;17.90;98.00
33793;DHT22;20105;48.764;9.178;2022-07-06T06:45:30;18.10;98.00
33793;DHT22;20105;48.764;9.178;2022-07-06T06:47:55;18.10;97.00
33793;DHT22;20105;48.764;9.178;2022-07-06T06:50:21;18.10;97.50
33793;DHT22;20105;48.764;9.178;2022-07-06T06:52:49;18.00;97.80
33793;DHT22;20105;48.764;9.178;2022-07-06T06:55:14;18.10;97.60
33793;DHT22;20105;48.764;9.178;2022-07-06T06:57:40;18.00;97.60
33793;DHT22;20105;48.764;9.178;2022-07-06T07:00:06;18.10;98.10
33793;DHT22;20105;48.764;9.178;2022-07-06T07:02:32;18.30;97.60
33793;DHT22;20105;48.764;9.178;2022-07-06T07:04:58;18.20;97.40
33793;DHT22;20105;48.764;9.178;2022-07-06T07:07:23;18.40;97.30
33793;DHT22;20105;48.764;9.178;2022-07-06T07:09:49;18.60;96.20
33793;DHT22;20105;48.764;9.178;2022-07-06T07:12:14;18.70;95.10
33793;DHT22;20105;48.764;9.178;2022-07-06T07:14:42;18.80;94.80
33793;DHT22;20105;48.764;9.178;2022-07-06T07:17:08;18.90;94.60
33793;DHT22;20105;48.764;9.178;2022-07-06T07:19:34;19.00;94.60
33793;DHT22;20105;48.764;9.178;2022-07-06T07:22:00;19.10;95.50
33793;DHT22;20105;48.764;9.178;2022-07-06T07:24:25;19.30;94.50
33793;DHT22;20105;48.764;9.178;2022-07-06T07:26:52;19.30;93.50
33793;DHT22;20105;48.764;9.178;2022-07-06T07:29:18;19.30;93.90
33793;DHT22;20105;48.764;9.178;2022-07-06T07:31:44;19.40;94.20
33793;DHT22;20105;48.764;9.178;2022-07-06T07:34:09;19.40;93.10
33793;DHT22;20105;48.764;9.178;2022-07-06T07:36:35;19.50;93.50
33793;DHT22;20105;48.764;9.178;2022-07-06T07:39:01;19.60;92.60
33793;DHT22;20105;48.764;9.178;2022-07-06T07:41:26;19.70;92.20
33793;DHT22;20105;48.764;9.178;2022-07-06T07:43:52;19.80;92.30
33793;DHT22;20105;48.764;9.178;2022-07-06T07:46:17;19.80;92.50
33793;DHT22;20105;48.764;9.178;2022-07-06T07:48:43;19.50;92.10
33793;DHT22;20105;48.764;9.178;2022-07-06T07:51:08;19.40;92.60
33793;DHT22;20105;48.764;9.178;2022-07-06T07:53:34;19.60;93.20
33793;DHT22;20105;48.764;9.178;2022-07-06T07:56:00;19.70;91.80
33793;DHT22;20105;48.764;9.178;2022-07-06T07:58:26;19.60;92.10
33793;DHT22;20105;48.764;9.178;2022-07-06T08:00:52;19.70;92.50
33793;DHT22;20105;48.764;9.178;2022-07-06T08:03:18;19.70;91.80
33793;DHT22;20105;48.764;9.178;2022-07-06T08:05:43;19.70;91.70
33793;DHT22;20105;48.764;9.178;2022-07-06T08:08:09;19.70;92.10
33793;DHT22;20105;48.764;9.178;2022-07-06T08:10:34;19.80;92.00
33793;DHT22;20105;48.764;9.178;2022-07-06T08:13:00;20.00;91.90
33793;DHT22;20105;48.764;9.178;2022-07-06T08:15:25;20.10;91.40
33793;DHT22;20105;48.764;9.178;2022-07-06T08:17:51;20.30;91.20
33793;DHT22;20105;48.764;9.178;2022-07-06T08:20:16;20.00;91.20
33793;DHT22;20105;48.764;9.178;2022-07-06T08:22:43;19.80;92.30
33793;DHT22;20105;48.764;9.178;2022-07-06T08:25:09;20.10;91.80
33793;DHT22;20105;48.764;9.178;2022-07-06T08:27:34;20.30;91.40
33793;DHT22;20105;48.764;9.178;2022-07-06T08:30:01;20.40;91.30
33793;DHT22;20105;48.764;9.178;2022-07-06T08:32:26;20.50;91.60
33793;DHT22;20105;48.764;9.178;2022-07-06T08:34:52;20.40;90.80
33793;DHT22;20105;48.764;9.178;2022-07-06T08:37:18;20.40;91.00
33793;DHT22;20105;48.764;9.178;2022-07-06T08:39:44;20.50;91.50
33793;DHT22;20105;48.764;9.178;2022-07-06T08:42:11;20.70;91.10
33793;DHT22;20105;48.764;9.178;2022-07-06T08:44:37;20.80;91.10
33793;DHT22;20105;48.764;9.178;2022-07-06T08:47:05;20.60;91.60
33793;DHT22;20105;48.764;9.178;2022-07-06T08:49:35;20.70;91.10
33793;DHT22;20105;48.764;9.178;2022-07-06T08:52:03;20.60;91.30
33793;DHT22;20105;48.764;9.178;2022-07-06T08:54:32;20.50;91.50
33793;DHT22;20105;48.764;9.178;2022-07-06T08:56:58;20.70;91.40
33793;DHT22;20105;48.764;9.178;2022-07-06T08:59:25;20.70;91.20
33793;DHT22;20105;48.764;9.178;2022-07-06T09:01:51;20.60;91.50
33793;DHT22;20105;48.764;9.178;2022-07-06T09:04:17;20.40;91.70
33793;DHT22;20105;48.764;9.178;2022-07-06T09:06:46;20.60;91.20
33793;DHT22;20105;48.764;9.178;2022-07-06T09:09:16;20.90;90.70
33793;DHT22;20105;48.764;9.178;2022-07-06T09:11:43;20.70;91.20
33793;DHT22;20105;48.764;9.178;2022-07-06T09:14:09;20.80;90.90
33793;DHT22;20105;48.764;9.178;2022-07-06T09:16:35;20.70;91.40
33793;DHT22;20105;48.764;9.178;2022-07-06T09:19:01;20.80;91.40
33793;DHT22;20105;48.764;9.178;2022-07-06T09:21:31;21.10;90.80
33793;DHT22;20105;48.764;9.178;2022-07-06T09:24:05;21.10;90.30
33793;DHT22;20105;48.764;9.178;2022-07-06T09:26:31;21.10;90.20
33793;DHT22;20105;48.764;9.178;2022-07-06T09:28:57;21.20;89.60
33793;DHT22;20105;48.764;9.178;2022-07-06T09:31:24;21.20;90.10
33793;DHT22;20105;48.764;9.178;2022-07-06T09:34:04;21.40;89.50
33793;DHT22;20105;48.764;9.178;2022-07-06T09:36:43;21.50;88.80
33793;DHT22;20105;48.764;9.178;2022-07-06T09:39:28;21.60;88.80
33793;DHT22;20105;48.764;9.178;2022-07-06T09:41:59;21.40;88.90
33793;DHT22;20105;48.764;9.178;2022-07-06T09:44:30;21.20;89.40
33793;DHT22;20105;48.764;9.178;2022-07-06T09:46:58;21.50;88.30
33793;DHT22;20105;48.764;9.178;2022-07-06T09:49:25;21.60;88.00
33793;DHT22;20105;48.764;9.178;2022-07-06T09:51:56;21.80;88.10
33793;DHT22;20105;48.764;9.178;2022-07-06T09:54:22;21.80;87.80
33793;DHT22;20105;48.764;9.178;2022-07-06T09:56:50;21.80;88.20
33793;DHT22;20105;48.764;9.178;2022-07-06T09:59:19;21.70;88.70
33793;DHT22;20105;48.764;9.178;2022-07-06T10:01:47;21.60;88.80
33793;DHT22;20105;48.764;9.178;2022-07-06T10:04:13;21.30;89.10
33793;DHT22;20105;48.764;9.178;2022-07-06T10:06:39;21.30;89.50
33793;DHT22;20105;48.764;9.178;2022-07-06T10:09:07;21.50;89.70
33793;DHT22;20105;48.764;9.178;2022-07-06T10:11:52;21.80;88.40
33793;DHT22;20105;48.764;9.178;2022-07-06T10:14:21;22.00;88.40
33793;DHT22;20105;48.764;9.178;2022-07-06T10:16:48;22.20;87.50
33793;DHT22;20105;48.764;9.178;2022-07-06T10:19:15;22.20;87.90
33793;DHT22;20105;48.764;9.178;2022-07-06T10:21:41;21.70;89.10
33793;DHT22;20105;48.764;9.178;2022-07-06T10:24:09;21.70;89.40
33793;DHT22;20105;48.764;9.178;2022-07-06T10:26:35;21.50;88.80
33793;DHT22;20105;48.764;9.178;2022-07-06T10:29:03;21.90;88.80
33793;DHT22;20105;48.764;9.178;2022-07-06T10:31:29;22.30;87.80
33793;DHT22;20105;48.764;9.178;2022-07-06T10:36:27;22.70;87.00
33793;DHT22;20105;48.764;9.178;2022-07-06T10:38:53;22.40;87.80
33793;DHT22;20105;48.764;9.178;2022-07-06T10:41:33;22.10;88.80
33793;DHT22;20105;48.764;9.178;2022-07-06T10:44:36;22.30;87.90
33793;DHT22;20105;48.764;9.178;2022-07-06T10:47:09;22.30;87.90
33793;DHT22;20105;48.764;9.178;2022-07-06T10:49:48;22.70;87.40
33793;DHT22;20105;48.764;9.178;2022-07-06T10:52:17;22.60;87.60
33793;DHT22;20105;48.764;9.178;2022-07-06T10:54:43;22.60;88.30
33793;DHT22;20105;48.764;9.178;2022-07-06T10:57:10;22.50;87.10
33793;DHT22;20105;48.764;9.178;2022-07-06T10:59:35;22.60;87.50
33793;DHT22;20105;48.764;9.178;2022-07-06T11:02:17;22.40;87.10
33793;DHT22;20105;48.764;9.178;2022-07-06T11:04:45;22.60;87.30
33793;DHT22;20105;48.764;9.178;2022-07-06T11:07:13;22.60;87.50
33793;DHT22;20105;48.764;9.178;2022-07-06T11:09:39;22.60;87.40
33793;DHT22;20105;48.764;9.178;2022-07-06T11:12:17;22.80;87.10
33793;DHT22;20105;48.764;9.178;2022-07-06T11:14:47;22.70;87.10
33793;DHT22;20105;48.764;9.178;2022-07-06T11:17:13;22.70;87.10
33793;DHT22;20105;48.764;9.178;2022-07-06T11:19:48;22.80;87.00
33793;DHT22;20105;48.764;9.178;2022-07-06T11:22:18;23.00;86.50
33793;DHT22;20105;48.764;9.178;2022-07-06T11:27:10;23.20;86.10
33793;DHT22;20105;48.764;9.178;2022-07-06T11:29:36;22.90;87.00
33793;DHT22;20105;48.764;9.178;2022-07-06T11:32:06;22.80;86.80
33793;DHT22;20105;48.764;9.178;2022-07-06T11:34:36;22.50;87.50
33793;DHT22;20105;48.764;9.178;2022-07-06T11:37:08;22.40;88.10
33793;DHT22;20105;48.764;9.178;2022-07-06T11:39:45;22.40;87.90
33793;DHT22;20105;48.764;9.178;2022-07-06T11:42:13;22.70;87.70
33793;DHT22;20105;48.764;9.178;2022-07-06T11:44:40;22.60;87.80
33793;DHT22;20105;48.764;9.178;2022-07-06T11:47:07;22.50;87.80
33793;DHT22;20105;48.764;9.178;2022-07-06T11:49:34;22.50;87.90
33793;DHT22;20105;48.764;9.178;2022-07-06T11:52:05;22.60;87.80
33793;DHT22;20105;48.764;9.178;2022-07-06T11:54:32;23.00;86.90
33793;DHT22;20105;48.764;9.178;2022-07-06T11:56:58;22.80;86.90
33793;DHT22;20105;48.764;9.178;2022-07-06T11:59:29;23.00;86.90
33793;DHT22;20105;48.764;9.178;2022-07-06T12:04:30;23.50;85.90
33793;DHT22;20105;48.764;9.178;2022-07-06T12:06:59;23.60;85.40
33793;DHT22;20105;48.764;9.178;2022-07-06T12:09:25;23.30;86.20
33793;DHT22;20105;48.764;9.178;2022-07-06T12:11:51;23.60;86.20
33793;DHT22;20105;48.764;9.178;2022-07-06T12:14:18;24.00;85.10
33793;DHT22;20105;48.764;9.178;2022-07-06T12:16:46;23.90;84.90
33793;DHT22;20105;48.764;9.178;2022-07-06T12:24:10;23.30;85.90
33793;DHT22;20105;48.764;9.178;2022-07-06T12:26:40;22.70;86.70
33793;DHT22;20105;48.764;9.178;2022-07-06T12:29:10;22.80;87.30
33793;DHT22;20105;48.764;9.178;2022-07-06T12:34:17;22.60;87.50
33793;DHT22;20105;48.764;9.178;2022-07-06T12:36:57;22.70;87.20
33793;DHT22;20105;48.764;9.178;2022-07-06T12:39:25;23.10;86.50
33793;DHT22;20105;48.764;9.178;2022-07-06T12:41:55;23.20;86.00
33793;DHT22;20105;48.764;9.178;2022-07-06T12:44:25;23.20;86.00
33793;DHT22;20105;48.764;9.178;2022-07-06T12:47:07;23.00;86.20
33793;DHT22;20105;48.764;9.178;2022-07-06T12:49:33;22.90;86.40
33793;DHT22;20105;48.764;9.178;2022-07-06T12:52:09;22.90;86.40
33793;DHT22;20105;48.764;9.178;2022-07-06T12:54:48;23.00;86.20
33793;DHT22;20105;48.764;9.178;2022-07-06T12:57:23;22.70;86.60
33793;DHT22;20105;48.764;9.178;2022-07-06T13:02:29;22.70;87.00
33793;DHT22;20105;48.764;9.178;2022-07-06T13:05:00;22.70;86.90
33793;DHT22;20105;48.764;9.178;2022-07-06T13:07:27;22.60;87.00
33793;DHT22;20105;48.764;9.178;2022-07-06T13:09:54;22.30;87.20
33793;DHT22;20105;48.764;9.178;2022-07-06T13:12:20;22.20;87.70
33793;DHT22;20105;48.764;9.178;2022-07-06T13:14:46;22.70;87.10
33793;DHT22;20105;48.764;9.178;2022-07-06T13:17:12;23.00;86.10
33793;DHT22;20105;48.764;9.178;2022-07-06T13:19:38;23.30;85.30
33793;DHT22;20105;48.764;9.178;2022-07-06T13:22:04;23.30;85.80
33793;DHT22;20105;48.764;9.178;2022-07-06T13:24:29;23.30;85.40
33793;DHT22;20105;48.764;9.178;2022-07-06T13:26:56;23.10;85.50
33793;DHT22;20105;48.764;9.178;2022-07-06T13:29:22;23.10;85.90
33793;DHT22;20105;48.764;9.178;2022-07-06T13:31:47;22.90;85.90
33793;DHT22;20105;48.764;9.178;2022-07-06T13:34:13;22.60;86.80
33793;DHT22;20105;48.764;9.178;2022-07-06T13:36:39;22.40;86.90
33793;DHT22;20105;48.764;9.178;2022-07-06T13:39:05;22.50;86.50
33793;DHT22;20105;48.764;9.178;2022-07-06T13:41:31;22.50;86.60
33793;DHT22;20105;48.764;9.178;2022-07-06T13:43:57;22.70;86.30
33793;DHT22;20105;48.764;9.178;2022-07-06T13:46:24;22.60;86.40
33793;DHT22;20105;48.764;9.178;2022-07-06T13:48:49;22.90;86.00
33793;DHT22;20105;48.764;9.178;2022-07-06T13:51:15;23.20;85.20
33793;DHT22;20105;48.764;9.178;2022-07-06T13:53:41;23.50;84.60
33793;DHT22;20105;48.764;9.178;2022-07-06T13:56:06;23.40;85.00
33793;DHT22;20105;48.764;9.178;2022-07-06T13:58:33;23.30;84.60
33793;DHT22;20105;48.764;9.178;2022-07-06T14:00:59;23.40;84.70
33793;DHT22;20105;48.764;9.178;2022-07-06T14:03:24;23.90;84.90
33793;DHT22;20105;48.764;9.178;2022-07-06T14:05:59;23.90;83.70
33793;DHT22;20105;48.764;9.178;2022-07-06T14:08:25;23.90;83.70
33793;DHT22;20105;48.764;9.178;2022-07-06T14:10:52;23.80;83.50
33793;DHT22;20105;48.764;9.178;2022-07-06T14:13:19;23.60;84.00
33793;DHT22;20105;48.764;9.178;2022-07-06T14:15:44;24.00;83.90
33793;DHT22;20105;48.764;9.178;2022-07-06T14:20:36;23.90;82.90
33793;DHT22;20105;48.764;9.178;2022-07-06T14:23:02;23.30;84.20
33793;DHT22;20105;48.764;9.178;2022-07-06T14:25:28;23.60;84.40
33793;DHT22;20105;48.764;9.178;2022-07-06T14:27:53;24.00;82.80
33793;DHT22;20105;48.764;9.178;2022-07-06T14:30:19;24.30;82.30
33793;DHT22;20105;48.764;9.178;2022-07-06T14:32:45;24.20;82.30
33793;DHT22;20105;48.764;9.178;2022-07-06T14:35:11;24.60;81.80
33793;DHT22;20105;48.764;9.178;2022-07-06T14:37:37;24.60;81.60
33793;DHT22;20105;48.764;9.178;2022-07-06T14:40:03;24.40;82.40
33793;DHT22;20105;48.764;9.178;2022-07-06T14:42:29;24.80;81.40
33793;DHT22;20105;48.764;9.178;2022-07-06T14:44:55;24.80;81.50
33793;DHT22;20105;48.764;9.178;2022-07-06T14:47:20;25.00;81.30
33793;DHT22;20105;48.764;9.178;2022-07-06T14:49:46;25.50;80.40
33793;DHT22;20105;48.764;9.178;2022-07-06T14:54:37;24.70;81.50
33793;DHT22;20105;48.764;9.178;2022-07-06T14:57:04;24.80;81.10
33793;DHT22;20105;48.764;9.178;2022-07-06T14:59:30;24.90;81.10
33793;DHT22;20105;48.764;9.178;2022-07-06T15:01:56;24.90;81.10
33793;DHT22;20105;48.764;9.178;2022-07-06T15:04:21;24.90;81.20
33793;DHT22;20105;48.764;9.178;2022-07-06T15:06:48;24.80;81.20
33793;DHT22;20105;48.764;9.178;2022-07-06T15:09:14;25.30;80.80
33793;DHT22;20105;48.764;9.178;2022-07-06T15:11:39;25.40;80.70
33793;DHT22;20105;48.764;9.178;2022-07-06T15:14:05;25.70;80.40
33793;DHT22;20105;48.764;9.178;2022-07-06T15:18:57;24.90;80.70
33793;DHT22;20105;48.764;9.178;2022-07-06T15:21:23;24.40;81.80
33793;DHT22;20105;48.764;9.178;2022-07-06T15:23:48;24.10;82.20
33793;DHT22;20105;48.764;9.178;2022-07-06T15:26:14;24.00;82.60
33793;DHT22;20105;48.764;9.178;2022-07-06T15:28:40;24.60;81.60
33793;DHT22;20105;48.764;9.178;2022-07-06T15:31:05;24.50;81.10
33793;DHT22;20105;48.764;9.178;2022-07-06T15:33:31;24.80;81.00
33793;DHT22;20105;48.764;9.178;2022-07-06T15:35:57;24.30;81.10
33793;DHT22;20105;48.764;9.178;2022-07-06T15:38:23;23.80;82.40
33793;DHT22;20105;48.764;9.178;2022-07-06T15:40:48;24.00;82.00
33793;DHT22;20105;48.764;9.178;2022-07-06T15:43:21;24.30;81.70
33793;DHT22;20105;48.764;9.178;2022-07-06T15:45:46;24.80;81.00
33793;DHT22;20105;48.764;9.178;2022-07-06T15:48:12;24.70;80.50
33793;DHT22;20105;48.764;9.178;2022-07-06T15:50:38;24.60;80.80
33793;DHT22;20105;48.764;9.178;2022-07-06T15:53:04;24.90;80.40
33793;DHT22;20105;48.764;9.178;2022-07-06T15:55:30;25.30;80.00
33793;DHT22;20105;48.764;9.178;2022-07-06T15:57:56;25.50;79.20
33793;DHT22;20105;48.764;9.178;2022-07-06T16:00:21;25.30;79.90